Andover, Kansas
Current Conditions -  °F | °C
As of 10:54 AM on Saturday 20 Dec 2014 (Local Time) from KAAO Reporting Station
Clear Clear  
Wind Chill: 36°   Ceiling: Unl
Heat Index: 43°   Visibility: 10mi
Dew Point: 37°   Wind: 14mph
Humidity: 80%   Direction: 200°SSW
Pressure: 30.16"   Gusts: NA
Location:  37.71°N, 97.14°W
Report Text: KAAO 201654Z AUTO 20012KT 10SM CLR 06/03 A3016 RMK AO2 SLP222 T00610028
Loading
Personal Weather Stations






























Interactive Weather Map New forecast layout! Learn more

10-Day Weather Forecast

Advertisements
Track Severe Weather on mobile